ADDS METAR Data INFO
IDs: Format: Raw Decoded Include TAF

Data at: 0855 UTC 19 Jun 2018

KMRT 190835Z AUTO 29005KT 10SM SCT034 24/22 A2998 RMK AO2 T02400216
KMRT 190815Z AUTO 28005KT 10SM SCT034 25/22 A2997 RMK AO2 T02450216
KMRT 190755Z AUTO 27005KT 10SM CLR 25/22 A2996 RMK AO2 T02500216
KMRT 190735Z AUTO 29007KT 10SM CLR 25/22 A2997 RMK AO2 T02540216
KMRT 190715Z AUTO 29009G14KT 10SM CLR 26/22 A2998 RMK AO2 T02600215
KMRT 190655Z AUTO 30007KT 10SM SCT038 SCT060 SCT075 26/22 A2997 RMK AO2 T02610215
KMRT 190635Z AUTO 29005KT 10SM SCT038 SCT046 BKN060 26/22 A2998 RMK AO2 T02590216
KMRT 190615Z AUTO 27009KT 10SM SCT038 SCT060 26/22 A2998 RMK AO2 T02600215
KMRT 190555Z AUTO 27008KT 10SM CLR 26/22 A2998 RMK AO2 T02620215 10310 20262 403340217
KMRT 190535Z AUTO 27007KT 10SM CLR 26/22 A2998 RMK AO2 T02630216
KMRT 190515Z AUTO 27009KT 10SM CLR 27/22 A2998 RMK AO2 T02670215
KMRT 190455Z AUTO 27010G16KT 10SM CLR 27/22 A2998 RMK AO2 T02700215
KMRT 190435Z AUTO 27009KT 10SM CLR 27/22 A2998 RMK AO2 T02700215
KMRT 190415Z AUTO 27009KT 10SM CLR 27/22 A2998 RMK AO2 T02700215
KMRT 190355Z AUTO 27008KT 10SM CLR 27/22 A2998 RMK AO2 T02700215
KMRT 190335Z AUTO 26008KT 10SM CLR 27/22 A2998 RMK AO2 T02710215
KMRT 190315Z AUTO 26009KT 10SM CLR 27/22 A2998 RMK AO2 T02710215
KMRT 190255Z AUTO 26007KT 10SM CLR 27/22 A2998 RMK AO2 T02700215
KMRT 190235Z AUTO 25006KT 10SM CLR 27/21 A2998 RMK AO2 T02700213
KMRT 190215Z AUTO 25006KT 10SM CLR 27/21 A2997 RMK AO2 T02710211
KMRT 190155Z AUTO 24007KT 10SM CLR 27/21 A2997 RMK AO2 T02740211
KMRT 190135Z AUTO 24006KT 10SM CLR 28/21 A2997 RMK AO2 T02750212
KMRT 190115Z AUTO 25006KT 10SM CLR 29/21 A2997 RMK AO2 T02850210
KMRT 190055Z AUTO 27006KT 10SM CLR 29/21 A2997 RMK AO2 T02900207
KMRT 190035Z AUTO 27007KT 10SM CLR 30/21 A2997 RMK AO2 T02960206
KMRT 190015Z AUTO 27010G14KT 10SM CLR 31/20 A2997 RMK AO2 T03050203
KMRT 182355Z AUTO 26012KT 10SM CLR 31/21 A2996 RMK AO2 T03100205 10334 20310
KMRT 182335Z AUTO 26013KT 10SM CLR 31/21 A2996 RMK AO2 T03130206
KMRT 182315Z AUTO 27013G17KT 10SM CLR 32/21 A2996 RMK AO2 T03160206
KMRT 182255Z AUTO 26008KT 10SM CLR 32/21 A2996 RMK AO2 T03210210
KMRT 182235Z AUTO 25012KT 10SM CLR 33/21 A2996 RMK AO2 T03250209
KMRT 182215Z AUTO 26013KT 10SM CLR 33/21 A2996 RMK AO2 T03250205
KMRT 182155Z AUTO 28014G21KT 10SM SCT050 SCT065 33/21 A2997 RMK AO2 T03260206
KMRT 182135Z AUTO 25011G19KT 10SM BKN050 BKN065 33/21 A2997 RMK AO2 T03250207
KMRT 182115Z AUTO 26013G21KT 10SM SCT050 SCT070 33/21 A2998 RMK AO2 T03260208
KMRT 182055Z AUTO 25012G18KT 10SM SCT050 SCT070 33/21 A2999 RMK AO2 T03250205
KMRT 182035Z AUTO 25013G18KT 10SM SCT050 33/21 A2999 RMK AO2 T03310207
KMRT 182015Z AUTO 25014G19KT 10SM SCT050 SCT070 33/21 A3000 RMK AO2 T03310209
KMRT 181955Z AUTO 25011G19KT 10SM SCT048 33/22 A3000 RMK AO2 T03300215
KMRT 181935Z AUTO 25014KT 10SM SCT049 SCT055 33/22 A3001 RMK AO2 T03300217
KMRT 181915Z AUTO 26010KT 10SM SCT049 SCT060 32/22 A3002 RMK AO2 T03170219
KMRT 181855Z AUTO 26010KT 10SM SCT050 SCT055 33/22 A3003 RMK AO2 T03270216
KMRT 181835Z AUTO 26011G17KT 10SM BKN046 BKN060 32/22 A3004 RMK AO2 T03230218
KMRT 181815Z AUTO 25009KT 10SM SCT046 BKN050 32/22 A3005 RMK AO2 T03230216
KMRT 181755Z AUTO 27011G14KT 10SM SCT044 SCT050 SCT065 32/22 A3006 RMK AO2 T03230219 10323 20245
KMRT 181735Z AUTO 28008KT 10SM SCT042 SCT050 SCT065 31/23 A3006 RMK AO2 T03120226
KMRT 181715Z AUTO 27008KT 10SM SCT040 SCT050 SCT065 31/23 A3007 RMK AO2 T03130225
KMRT 181655Z AUTO 28009G14KT 10SM SCT040 SCT045 SCT050 32/23 A3008 RMK AO2 T03160226
KMRT 181635Z AUTO 28010G16KT 10SM SCT038 SCT048 31/23 A3009 RMK AO2 T03130225
KMRT 181615Z AUTO 28014KT 10SM SCT038 SCT048 31/23 A3009 RMK AO2 T03130225
KMRT 181555Z AUTO 28012G17KT 10SM CLR 31/22 A3009 RMK AO2 T03110224
KMRT 181535Z AUTO 29013G18KT 10SM CLR 31/22 A3009 RMK AO2 T03090223
KMRT 181515Z AUTO 28009G14KT 10SM CLR 31/22 A3009 RMK AO2 T03060224
KMRT 181455Z AUTO 27011G16KT 10SM CLR 30/22 A3009 RMK AO2 T03010223
KMRT 181435Z AUTO 26009KT 10SM CLR 30/22 A3009 RMK AO2 T02980221
KMRT 181415Z AUTO 26010KT 10SM CLR 30/23 A3009 RMK AO2 T02950225
KMRT 181355Z AUTO 28007KT 10SM CLR 29/23 A3009 RMK AO2 T02890226
KMRT 181335Z AUTO 26009KT 10SM CLR 28/22 A3009 RMK AO2 T02810223
KMRT 181315Z AUTO 26008KT 10SM CLR 28/23 A3009 RMK AO2 T02770225
KMRT 181255Z AUTO 26006KT 10SM CLR 27/23 A3009 RMK AO2 T02670225
KMRT 181235Z AUTO 25006KT 10SM CLR 26/22 A3009 RMK AO2 T02610223
KMRT 181215Z AUTO 26005KT 10SM CLR 25/22 A3009 RMK AO2 T02530219
KMRT 181155Z AUTO 25004KT 7SM CLR 24/22 A3009 RMK AO2 T02430220 10243 20217
KMRT 181135Z AUTO 24004KT 7SM CLR 24/22 A3008 RMK AO2 T02350216
KMRT 181115Z AUTO 25004KT 7SM CLR 23/21 A3008 RMK AO2 T02290213
KMRT 181055Z AUTO 22003KT 5SM CLR 22/21 A3008 RMK AO2 T02200208
KMRT 181035Z AUTO 00000KT 7SM CLR 22/21 A3009 RMK AO2 T02180206
KMRT 181015Z AUTO 25003KT 5SM CLR 22/21 A3008 RMK AO2 T02170205
KMRT 180955Z AUTO 23006KT 7SM CLR 22/21 A3008 RMK AO2 T02220208
KMRT 180935Z AUTO 23006KT 7SM CLR 22/21 A3007 RMK AO2 T02200207
KMRT 180915Z AUTO 23005KT 7SM CLR 22/21 A3007 RMK AO2 T02210208
KMRT 180855Z AUTO 22005KT 7SM CLR 22/21 A3007 RMK AO2 T02200207
KMRT 180835Z AUTO 23003KT 7SM CLR 22/21 A3008 RMK AO2 T02190206
KMRT 180815Z AUTO 00000KT 7SM CLR 22/21 A3008 RMK AO2 T02240209
KMRT 180755Z AUTO 00000KT 7SM CLR 22/21 A3007 RMK AO2 T02210209
KMRT 180735Z AUTO 24003KT 7SM CLR 22/21 A3008 RMK AO2 T02220210
KMRT 180715Z AUTO 00000KT 7SM CLR 23/21 A3008 RMK AO2 T02260212
KMRT 180655Z AUTO 22004KT 7SM CLR 23/21 A3008 RMK AO2 T02260212
KMRT 180635Z AUTO 23004KT 7SM CLR 23/21 A3008 RMK AO2 T02260213
KMRT 180615Z AUTO 23003KT 7SM CLR 23/22 A3009 RMK AO2 T02300215
KMRT 180555Z AUTO 23004KT 7SM CLR 23/21 A3009 RMK AO2 T02280214 10304 20228 403330207
KMRT 180535Z AUTO 21004KT 10SM CLR 23/22 A3009 RMK AO2 T02310215
KMRT 180515Z AUTO 22004KT 10SM CLR 23/22 A3010 RMK AO2 T02300215
KMRT 180455Z AUTO 21003KT 10SM CLR 24/22 A3009 RMK AO2 T02350215
KMRT 180435Z AUTO 25003KT 10SM CLR 24/22 A3009 RMK AO2 T02390219
KMRT 180415Z AUTO 20003KT 10SM CLR 24/22 A3008 RMK AO2 T02440217
KMRT 180355Z AUTO 22005KT 10SM CLR 25/22 A3008 RMK AO2 T02450217
KMRT 180335Z AUTO 23005KT 10SM CLR 24/22 A3008 RMK AO2 T02430218
KMRT 180315Z AUTO 23005KT 10SM CLR 25/22 A3008 RMK AO2 T02450220
KMRT 180255Z AUTO 22005KT 10SM CLR 25/22 A3007 RMK AO2 T02470220
KMRT 180235Z AUTO 22005KT 10SM CLR 25/22 A3007 RMK AO2 T02510220
KMRT 180215Z AUTO 24004KT 10SM CLR 26/22 A3007 RMK AO2 T02550221
KMRT 180155Z AUTO 22005KT 10SM CLR 26/22 A3006 RMK AO2 T02550224
KMRT 180135Z AUTO 23004KT 10SM CLR 26/23 A3006 RMK AO2 T02600225
KMRT 180115Z AUTO 23004KT 10SM CLR 27/23 A3005 RMK AO2 T02650225
KMRT 180055Z AUTO 22005KT 10SM CLR 27/23 A3005 RMK AO2 T02700228
KMRT 180035Z AUTO 22004KT 10SM CLR 28/23 A3005 RMK AO2 T02810227
KMRT 180015Z AUTO 24004KT 10SM CLR 30/22 A3006 RMK AO2 T02970216
KMRT 172355Z AUTO 24006KT 10SM CLR 31/22 A3006 RMK AO2 T03050216 10333 20305
KMRT 172335Z AUTO 24006KT 10SM CLR 31/22 A3006 RMK AO2 T03100216
KMRT 172315Z AUTO 24006KT 10SM CLR 32/21 A3006 RMK AO2 T03160211
KMRT 172255Z AUTO 24005KT 10SM CLR 32/21 A3006 RMK AO2 T03190209
KMRT 172235Z AUTO 25007KT 10SM SCT060 32/21 A3007 RMK AO2 T03200207
KMRT 172215Z AUTO 23005KT 10SM SCT060 33/21 A3007 RMK AO2 T03250210
KMRT 172155Z AUTO 23006KT 10SM CLR 33/20 A3007 RMK AO2 T03280198
KMRT 172135Z AUTO 26008KT 10SM CLR 33/20 A3008 RMK AO2 T03300195
KMRT 172115Z AUTO 25005KT 10SM CLR 33/20 A3007 RMK AO2 T03280204